Decoded Metar for KSDM (SAN DIEGO/BROWN in CA, USA) (IATA:SDM) | Meteo·Mobile Aviation Weather
aviador You're here:

KSDM Decoded Metar

SAN DIEGO/BROWN in CA, USA
Report Time2019-01-19 05:53:00
UTC Time2019-01-19 06:57:36
Flight Rules vfr VFR
WindCalm
Visibility9999 m
Phenomena:N/A
Clouds:N/A
Expected CloudBase > 400 ft AGL from Temp-Dew spread
CeilingNone
Temp13°C (ISA -1)
Dew Point12°C (94% RH)
QNH1025 hPa
Density Alt194 ft
Elevation522 ft
Report Wrong Elevation
Raw Report
KSDM 190553Z AUTO 00000KT 9SM CLR 13/12 A3026 RMK AO2 SLP245
T01280117 10167 20122 51011=

Extra information for KSDM:More info

Metar Taf Metar & Taf Last 4 Metars F.Rules Stats Wind Profile Meteogram Temp Stats Airport Information Weather charts Add Link Nearby VenuesMetar ALERT Operation Metar Decoded Social comments

AIRNAV info for KSDM